Jeff Kindl — WDI5759 — position and weather

sailwx.info

Track history (hours):
 
Tides and Currents Weather Stations Pressure Air Temp Water Temp Dewpoint Dewpoint Depression Visibility Wind Speed Wind Dir Waves Ship Positions

Jeff Kindl

Owner: American Commercial Lines LLC, Jeffersonville, IN. More information available from US FCC via Universal Licensing System and Coast Guard Vessel Documentation Center.

Last reported at 2018-May-08 07:33 UTC. Time now 2018-May-21 01:07 UTC.
Position N 29°56' W 090°22'.
Warning: this ship's position is 12 days out of date.

Length 27 m; draft 3 m.

Type: Tow > 200 m length. MMSI: 367711840.

Date/timePositionNaut miles runAvg speedWind from/ knotsBaromVisibWave heightAir tempDewpointWater temp
2018-May-08 07:33N 29°56' W 090°22'  
2018-May-02 09:17N 29°51' W 091°54'3 5.6
2018-May-02 08:49N 29°50' W 091°57'3 5.7
2018-May-02 08:15N 29°49' W 092°01'7 4.9
2018-May-02 06:43N 29°47' W 092°09'4 2.6
2018-May-02 05:01N 29°48' W 092°14'0 2.2
2018-May-02 05:00N 29°48' W 092°14'34 4.4
2018-May-01 21:22N 29°57' W 092°51'2 4.7
2018-May-01 20:57N 29°57' W 092°53'2 4.6
2018-May-01 20:28N 29°56' W 092°56'5 4.8
2018-May-01 19:31N 29°56' W 093°01'0 4.9
2018-May-01 19:30N 29°56' W 093°01'2 4.9
2018-May-01 19:00N 29°56' W 093°04'2 4.5
2018-May-01 18:30N 29°56' W 093°07'3 5.1
2018-May-01 18:00N 29°56' W 093°10'3 5.2
2018-May-01 17:30N 29°58' W 093°11'2 4.9
2018-May-01 17:00N 29°60' W 093°13'2 4.4
2018-May-01 16:30N 30°02' W 093°15'0 0.5
2018-May-01 16:00N 30°02' W 093°15'0 0.1
2018-May-01 15:30N 30°02' W 093°15'1 2.2
2018-May-01 15:00N 30°03' W 093°16'2 4.5
2018-May-01 14:30N 30°05' W 093°17'1 2.1
2018-May-01 14:00N 30°05' W 093°18'1 2.4
2018-May-01 13:30N 30°06' W 093°19'0 0.0
2018-May-01 12:59N 30°06' W 093°19'0 0.0
2018-May-01 12:29N 30°06' W 093°19'0 0.6
2018-May-01 12:00N 30°06' W 093°19'2 3.7
2018-May-01 11:30N 30°04' W 093°21'2 3.4
2018-May-01 11:00N 30°04' W 093°22'2 4.3
2018-May-01 10:30N 30°04' W 093°25'3 5.5
2018-May-01 10:00N 30°04' W 093°28'3 5.7
2018-May-01 09:30N 30°04' W 093°31'3 5.5
2018-May-01 09:00N 30°04' W 093°34'3 5.7
2018-May-01 08:30N 30°04' W 093°38'3 5.8
2018-May-01 08:00N 30°04' W 093°41'3 5.4
2018-May-01 07:30N 30°03' W 093°44'3 5.2
2018-May-01 07:00N 30°01' W 093°46'3 5.2
2018-May-01 06:30N 29°59' W 093°48'3 5.2
2018-May-01 06:00N 29°58' W 093°51'3 5.5
2018-May-01 05:30N 29°56' W 093°53'2 5.0
2018-May-01 05:00N 29°54' W 093°54'2 4.8
2018-May-01 04:30N 29°52' W 093°56'2 4.4
2018-May-01 04:00N 29°50' W 093°57'2 4.7
2018-May-01 03:30N 29°49' W 093°60'3 5.5
2018-May-01 03:00N 29°47' W 094°02'3 5.3
2018-May-01 02:30N 29°45' W 094°04'3 5.2
2018-May-01 02:00N 29°43' W 094°06'2 5.0
2018-May-01 01:30N 29°42' W 094°09'2 4.1
2018-May-01 01:00N 29°41' W 094°11'3 5.2
2018-May-01 00:30N 29°40' W 094°14'3 5.1
2018-May-01 00:00N 29°39' W 094°16'3 4.6
2018-Apr-30 23:25N 29°38' W 094°19'2 4.3
2018-Apr-30 22:59N 29°37' W 094°21'2 4.2
2018-Apr-30 22:25N 29°36' W 094°23'2 3.3
2018-Apr-30 21:57N 29°35' W 094°25'2 3.9
2018-Apr-30 21:29N 29°34' W 094°26'2 4.2
2018-Apr-30 20:58N 29°33' W 094°28'2 4.4
2018-Apr-30 20:29N 29°31' W 094°30'3 5.0
2018-Apr-30 19:57N 29°30' W 094°33'3 5.2
2018-Apr-30 19:28N 29°29' W 094°36'3 5.3
2018-Apr-30 18:59N 29°28' W 094°39'3 5.2
2018-Apr-30 18:28N 29°27' W 094°41'2 4.9
2018-Apr-30 18:00N 29°25' W 094°43'2 4.4
2018-Apr-30 17:30N 29°24' W 094°45'2 5.0
2018-Apr-30 17:00N 29°22' W 094°47'3 6.6
2018-Apr-30 16:29N 29°25' W 094°50'4 7.6
2018-Apr-30 16:00N 29°28' W 094°51'4 8.0
2018-Apr-30 15:30N 29°32' W 094°54'4 7.8
2018-Apr-30 15:00N 29°35' W 094°56'4 8.1
2018-Apr-30 14:30N 29°39' W 094°58'4 7.6
2018-Apr-30 14:00N 29°42' W 095°00'3 6.3
2018-Apr-30 13:30N 29°44' W 095°03'3 4.1
2018-Apr-30 12:48N 29°46' W 095°05'0 0.4
2018-Apr-30 12:28N 29°46' W 095°05'0 0.1
2018-Apr-30 11:28N 29°46' W 095°05'1 0.3
2018-Apr-30 09:21N 29°46' W 095°06'1 1.5
2018-Apr-30 08:51N 29°46' W 095°05'2 5.5
2018-Apr-30 08:29N 29°45' W 095°04'3 5.4
2018-Apr-30 08:00N 29°43' W 095°01'3 7.0
2018-Apr-30 07:30N 29°40' W 094°59'4 8.2
2018-Apr-30 07:00N 29°36' W 094°57'4 8.5
2018-Apr-30 06:30N 29°33' W 094°54'4 8.1
2018-Apr-30 06:00N 29°30' W 094°52'4 7.8
2018-Apr-30 05:30N 29°26' W 094°50'4 7.5
2018-Apr-30 04:58N 29°22' W 094°48'3 6.3
2018-Apr-30 04:29N 29°23' W 094°52'1 2.8
2018-Apr-30 04:00N 29°22' W 094°53'1 2.9
2018-Apr-30 03:30N 29°22' W 094°55'0 0.6
2018-Apr-30 02:54N 29°22' W 094°54'0 0.0
2018-Apr-30 02:25N 29°22' W 094°54'0 0.0
2018-Apr-30 01:13N 29°22' W 094°54'0 0.0
2018-Apr-29 21:54N 29°22' W 094°54'0 0.0
2018-Apr-29 21:19N 29°22' W 094°54'0 0.0
2018-Apr-29 20:10N 29°22' W 094°54'0 0.0
2018-Apr-29 19:57N 29°22' W 094°54'0 0.0
2018-Apr-29 19:27N 29°22' W 094°54'0 0.0
2018-Apr-29 19:00N 29°22' W 094°54'0 0.0
2018-Apr-29 18:30N 29°22' W 094°54'0 0.0
2018-Apr-29 18:01N 29°22' W 094°54'0 0.0
2018-Apr-29 17:27N 29°22' W 094°54'0 0.0
2018-Apr-29 17:00N 29°22' W 094°54'0 0.0
2018-Apr-29 16:30N 29°22' W 094°54'0 0.0
2018-Apr-29 15:46N 29°22' W 094°54'0 0.0
2018-Apr-29 15:28N 29°22' W 094°54'0 0.0
2018-Apr-29 13:18N 29°22' W 094°54'0 0.0
2018-Apr-29 12:58N 29°22' W 094°54'0 0.0
2018-Apr-29 12:24N 29°22' W 094°54'0 0.2
2018-Apr-29 12:00N 29°22' W 094°54'0 0.0
2018-Apr-29 11:27N 29°22' W 094°54'0 0.0
2018-Apr-29 11:00N 29°22' W 094°54'0 0.0
2018-Apr-29 10:30N 29°22' W 094°54'0 0.0
2018-Apr-29 09:45N 29°22' W 094°54'0 0.0
2018-Apr-29 09:30N 29°22' W 094°54'0 0.0
2018-Apr-29 08:54N 29°22' W 094°54'0 0.0
2018-Apr-29 08:30N 29°22' W 094°54'0 0.0
2018-Apr-29 07:57N 29°22' W 094°54'0 0.0
2018-Apr-29 07:30N 29°22' W 094°54'0 0.0
2018-Apr-29 07:00N 29°22' W 094°54'0 0.0
2018-Apr-29 06:30N 29°22' W 094°54'0 0.0
2018-Apr-29 05:57N 29°22' W 094°54'0 0.0
2018-Apr-29 05:30N 29°22' W 094°54'0 0.0
2018-Apr-29 05:00N 29°22' W 094°54'0 0.0
2018-Apr-29 04:30N 29°22' W 094°54'0 0.0
2018-Apr-29 03:57N 29°22' W 094°54'0 0.0
2018-Apr-29 03:30N 29°22' W 094°54'0 0.0
2018-Apr-29 03:00N 29°22' W 094°54'0 0.0
2018-Apr-29 02:30N 29°22' W 094°54'0 0.0
2018-Apr-29 01:57N 29°22' W 094°54'0 0.0
2018-Apr-29 01:30N 29°22' W 094°54'0 0.0
2018-Apr-29 01:00N 29°22' W 094°54'0 0.0
2018-Apr-29 00:27N 29°22' W 094°54'0 0.0
2018-Apr-29 00:00N 29°22' W 094°54'0 0.0
2018-Apr-28 22:33N 29°22' W 094°54'0 0.0
2018-Apr-28 22:30N 29°22' W 094°54'0 0.0
2018-Apr-28 21:54N 29°22' W 094°54'0 0.0
2018-Apr-28 21:30N 29°22' W 094°54'0 0.0
2018-Apr-28 21:00N 29°22' W 094°54'0 0.0
2018-Apr-28 20:30N 29°22' W 094°54'0 0.0
2018-Apr-28 20:00N 29°22' W 094°54'0 0.0
2018-Apr-28 19:29N 29°22' W 094°54'0 0.0
2018-Apr-28 18:59N 29°22' W 094°54'0 0.0
2018-Apr-28 18:30N 29°22' W 094°54'0 0.0
2018-Apr-28 17:59N 29°22' W 094°54'0 0.0
2018-Apr-28 17:30N 29°22' W 094°54'0 0.0
2018-Apr-28 16:59N 29°22' W 094°54'0 0.0
2018-Apr-28 16:30N 29°22' W 094°54'0 0.0
2018-Apr-28 16:00N 29°22' W 094°54'0 0.0
2018-Apr-28 15:30N 29°22' W 094°54'0 0.0
2018-Apr-28 15:00N 29°22' W 094°54'0 0.0
2018-Apr-28 14:27N 29°22' W 094°54'0 0.0
2018-Apr-28 14:00N 29°22' W 094°54'0 0.0
2018-Apr-28 13:29N 29°22' W 094°54'0 0.0
2018-Apr-28 13:00N 29°22' W 094°54'0 0.0
2018-Apr-28 12:24N 29°22' W 094°54'0 0.0
2018-Apr-28 11:59N 29°22' W 094°54'0 0.0
2018-Apr-28 11:30N 29°22' W 094°54'0 0.0
2018-Apr-28 10:57N 29°22' W 094°54'0 0.0
2018-Apr-28 10:30N 29°22' W 094°54'0 0.0
2018-Apr-28 10:00N 29°22' W 094°54'0 0.0
2018-Apr-28 09:30N 29°22' W 094°54'0 0.0
2018-Apr-28 08:59N 29°22' W 094°54'0 0.0
2018-Apr-28 08:29N 29°22' W 094°54'0 0.0
2018-Apr-28 08:00N 29°22' W 094°54'  
Track history (hours):
 
Tides and Currents Weather Stations Pressure Air Temp Water Temp Dewpoint Dewpoint Depression Visibility Wind Speed Wind Dir Waves Ship Positions

Jeff Kindl

Owner: American Commercial Lines LLC, Jeffersonville, IN. More information available from US FCC via Universal Licensing System and Coast Guard Vessel Documentation Center.

Last reported at 2018-May-08 07:33 UTC. Time now 2018-May-21 01:07 UTC.
Position N 29°56' W 090°22'.
Warning: this ship's position is 12 days out of date.

Length 27 m; draft 3 m.

Type: Tow > 200 m length. MMSI: 367711840.

Date/timePositionNaut miles runAvg speedWind from/ knotsBaromVisibWave heightAir tempDewpointWater temp
2018-May-08 07:33N 29°56' W 090°22'  
2018-May-02 09:17N 29°51' W 091°54'3 5.6
2018-May-02 08:49N 29°50' W 091°57'3 5.7
2018-May-02 08:15N 29°49' W 092°01'7 4.9
2018-May-02 06:43N 29°47' W 092°09'4 2.6
2018-May-02 05:01N 29°48' W 092°14'0 2.2
2018-May-02 05:00N 29°48' W 092°14'34 4.4
2018-May-01 21:22N 29°57' W 092°51'2 4.7
2018-May-01 20:57N 29°57' W 092°53'2 4.6
2018-May-01 20:28N 29°56' W 092°56'5 4.8
2018-May-01 19:31N 29°56' W 093°01'0 4.9
2018-May-01 19:30N 29°56' W 093°01'2 4.9
2018-May-01 19:00N 29°56' W 093°04'2 4.5
2018-May-01 18:30N 29°56' W 093°07'3 5.1
2018-May-01 18:00N 29°56' W 093°10'3 5.2
2018-May-01 17:30N 29°58' W 093°11'2 4.9
2018-May-01 17:00N 29°60' W 093°13'2 4.4
2018-May-01 16:30N 30°02' W 093°15'0 0.5
2018-May-01 16:00N 30°02' W 093°15'0 0.1
2018-May-01 15:30N 30°02' W 093°15'1 2.2
2018-May-01 15:00N 30°03' W 093°16'2 4.5
2018-May-01 14:30N 30°05' W 093°17'1 2.1
2018-May-01 14:00N 30°05' W 093°18'1 2.4
2018-May-01 13:30N 30°06' W 093°19'0 0.0
2018-May-01 12:59N 30°06' W 093°19'0 0.0
2018-May-01 12:29N 30°06' W 093°19'0 0.6
2018-May-01 12:00N 30°06' W 093°19'2 3.7
2018-May-01 11:30N 30°04' W 093°21'2 3.4
2018-May-01 11:00N 30°04' W 093°22'2 4.3
2018-May-01 10:30N 30°04' W 093°25'3 5.5
2018-May-01 10:00N 30°04' W 093°28'3 5.7
2018-May-01 09:30N 30°04' W 093°31'3 5.5
2018-May-01 09:00N 30°04' W 093°34'3 5.7
2018-May-01 08:30N 30°04' W 093°38'3 5.8
2018-May-01 08:00N 30°04' W 093°41'3 5.4
2018-May-01 07:30N 30°03' W 093°44'3 5.2
2018-May-01 07:00N 30°01' W 093°46'3 5.2
2018-May-01 06:30N 29°59' W 093°48'3 5.2
2018-May-01 06:00N 29°58' W 093°51'3 5.5
2018-May-01 05:30N 29°56' W 093°53'2 5.0
2018-May-01 05:00N 29°54' W 093°54'2 4.8
2018-May-01 04:30N 29°52' W 093°56'2 4.4
2018-May-01 04:00N 29°50' W 093°57'2 4.7
2018-May-01 03:30N 29°49' W 093°60'3 5.5
2018-May-01 03:00N 29°47' W 094°02'3 5.3
2018-May-01 02:30N 29°45' W 094°04'3 5.2
2018-May-01 02:00N 29°43' W 094°06'2 5.0
2018-May-01 01:30N 29°42' W 094°09'2 4.1
2018-May-01 01:00N 29°41' W 094°11'3 5.2
2018-May-01 00:30N 29°40' W 094°14'3 5.1
2018-May-01 00:00N 29°39' W 094°16'3 4.6
2018-Apr-30 23:25N 29°38' W 094°19'2 4.3
2018-Apr-30 22:59N 29°37' W 094°21'2 4.2
2018-Apr-30 22:25N 29°36' W 094°23'2 3.3
2018-Apr-30 21:57N 29°35' W 094°25'2 3.9
2018-Apr-30 21:29N 29°34' W 094°26'2 4.2
2018-Apr-30 20:58N 29°33' W 094°28'2 4.4
2018-Apr-30 20:29N 29°31' W 094°30'3 5.0
2018-Apr-30 19:57N 29°30' W 094°33'3 5.2
2018-Apr-30 19:28N 29°29' W 094°36'3 5.3
2018-Apr-30 18:59N 29°28' W 094°39'3 5.2
2018-Apr-30 18:28N 29°27' W 094°41'2 4.9
2018-Apr-30 18:00N 29°25' W 094°43'2 4.4
2018-Apr-30 17:30N 29°24' W 094°45'2 5.0
2018-Apr-30 17:00N 29°22' W 094°47'3 6.6
2018-Apr-30 16:29N 29°25' W 094°50'4 7.6
2018-Apr-30 16:00N 29°28' W 094°51'4 8.0
2018-Apr-30 15:30N 29°32' W 094°54'4 7.8
2018-Apr-30 15:00N 29°35' W 094°56'4 8.1
2018-Apr-30 14:30N 29°39' W 094°58'4 7.6
2018-Apr-30 14:00N 29°42' W 095°00'3 6.3
2018-Apr-30 13:30N 29°44' W 095°03'3 4.1
2018-Apr-30 12:48N 29°46' W 095°05'0 0.4
2018-Apr-30 12:28N 29°46' W 095°05'0 0.1
2018-Apr-30 11:28N 29°46' W 095°05'1 0.3
2018-Apr-30 09:21N 29°46' W 095°06'1 1.5
2018-Apr-30 08:51N 29°46' W 095°05'2 5.5
2018-Apr-30 08:29N 29°45' W 095°04'3 5.4
2018-Apr-30 08:00N 29°43' W 095°01'3 7.0
2018-Apr-30 07:30N 29°40' W 094°59'4 8.2
2018-Apr-30 07:00N 29°36' W 094°57'4 8.5
2018-Apr-30 06:30N 29°33' W 094°54'4 8.1
2018-Apr-30 06:00N 29°30' W 094°52'4 7.8
2018-Apr-30 05:30N 29°26' W 094°50'4 7.5
2018-Apr-30 04:58N 29°22' W 094°48'3 6.3
2018-Apr-30 04:29N 29°23' W 094°52'1 2.8
2018-Apr-30 04:00N 29°22' W 094°53'1 2.9
2018-Apr-30 03:30N 29°22' W 094°55'0 0.6
2018-Apr-30 02:54N 29°22' W 094°54'0 0.0
2018-Apr-30 02:25N 29°22' W 094°54'0 0.0
2018-Apr-30 01:13N 29°22' W 094°54'0 0.0
2018-Apr-29 21:54N 29°22' W 094°54'0 0.0
2018-Apr-29 21:19N 29°22' W 094°54'0 0.0
2018-Apr-29 20:10N 29°22' W 094°54'0 0.0
2018-Apr-29 19:57N 29°22' W 094°54'0 0.0
2018-Apr-29 19:27N 29°22' W 094°54'0 0.0
2018-Apr-29 19:00N 29°22' W 094°54'0 0.0
2018-Apr-29 18:30N 29°22' W 094°54'0 0.0
2018-Apr-29 18:01N 29°22' W 094°54'0 0.0
2018-Apr-29 17:27N 29°22' W 094°54'0 0.0
2018-Apr-29 17:00N 29°22' W 094°54'0 0.0
2018-Apr-29 16:30N 29°22' W 094°54'0 0.0
2018-Apr-29 15:46N 29°22' W 094°54'0 0.0
2018-Apr-29 15:28N 29°22' W 094°54'0 0.0
2018-Apr-29 13:18N 29°22' W 094°54'0 0.0
2018-Apr-29 12:58N 29°22' W 094°54'0 0.0
2018-Apr-29 12:24N 29°22' W 094°54'0 0.2
2018-Apr-29 12:00N 29°22' W 094°54'0 0.0
2018-Apr-29 11:27N 29°22' W 094°54'0 0.0
2018-Apr-29 11:00N 29°22' W 094°54'0 0.0
2018-Apr-29 10:30N 29°22' W 094°54'0 0.0
2018-Apr-29 09:45N 29°22' W 094°54'0 0.0
2018-Apr-29 09:30N 29°22' W 094°54'0 0.0
2018-Apr-29 08:54N 29°22' W 094°54'0 0.0
2018-Apr-29 08:30N 29°22' W 094°54'0 0.0
2018-Apr-29 07:57N 29°22' W 094°54'0 0.0
2018-Apr-29 07:30N 29°22' W 094°54'0 0.0
2018-Apr-29 07:00N 29°22' W 094°54'0 0.0
2018-Apr-29 06:30N 29°22' W 094°54'0 0.0
2018-Apr-29 05:57N 29°22' W 094°54'0 0.0
2018-Apr-29 05:30N 29°22' W 094°54'0 0.0
2018-Apr-29 05:00N 29°22' W 094°54'0 0.0
2018-Apr-29 04:30N 29°22' W 094°54'0 0.0
2018-Apr-29 03:57N 29°22' W 094°54'0 0.0
2018-Apr-29 03:30N 29°22' W 094°54'0 0.0
2018-Apr-29 03:00N 29°22' W 094°54'0 0.0
2018-Apr-29 02:30N 29°22' W 094°54'0 0.0
2018-Apr-29 01:57N 29°22' W 094°54'0 0.0
2018-Apr-29 01:30N 29°22' W 094°54'0 0.0
2018-Apr-29 01:00N 29°22' W 094°54'0 0.0
2018-Apr-29 00:27N 29°22' W 094°54'0 0.0
2018-Apr-29 00:00N 29°22' W 094°54'0 0.0
2018-Apr-28 22:33N 29°22' W 094°54'0 0.0
2018-Apr-28 22:30N 29°22' W 094°54'0 0.0
2018-Apr-28 21:54N 29°22' W 094°54'0 0.0
2018-Apr-28 21:30N 29°22' W 094°54'0 0.0
2018-Apr-28 21:00N 29°22' W 094°54'0 0.0
2018-Apr-28 20:30N 29°22' W 094°54'0 0.0
2018-Apr-28 20:00N 29°22' W 094°54'0 0.0
2018-Apr-28 19:29N 29°22' W 094°54'0 0.0
2018-Apr-28 18:59N 29°22' W 094°54'0 0.0
2018-Apr-28 18:30N 29°22' W 094°54'0 0.0
2018-Apr-28 17:59N 29°22' W 094°54'0 0.0
2018-Apr-28 17:30N 29°22' W 094°54'0 0.0
2018-Apr-28 16:59N 29°22' W 094°54'0 0.0
2018-Apr-28 16:30N 29°22' W 094°54'0 0.0
2018-Apr-28 16:00N 29°22' W 094°54'0 0.0
2018-Apr-28 15:30N 29°22' W 094°54'0 0.0
2018-Apr-28 15:00N 29°22' W 094°54'0 0.0
2018-Apr-28 14:27N 29°22' W 094°54'0 0.0
2018-Apr-28 14:00N 29°22' W 094°54'0 0.0
2018-Apr-28 13:29N 29°22' W 094°54'0 0.0
2018-Apr-28 13:00N 29°22' W 094°54'0 0.0
2018-Apr-28 12:24N 29°22' W 094°54'0 0.0
2018-Apr-28 11:59N 29°22' W 094°54'0 0.0
2018-Apr-28 11:30N 29°22' W 094°54'0 0.0
2018-Apr-28 10:57N 29°22' W 094°54'0 0.0
2018-Apr-28 10:30N 29°22' W 094°54'0 0.0
2018-Apr-28 10:00N 29°22' W 094°54'0 0.0
2018-Apr-28 09:30N 29°22' W 094°54'0 0.0
2018-Apr-28 08:59N 29°22' W 094°54'0 0.0
2018-Apr-28 08:29N 29°22' W 094°54'0 0.0
2018-Apr-28 08:00N 29°22' W 094°54'  

Dump ship's entire track history